Augusta, Georgia
Current Conditions -  °F | °C
As of 8:53 AM on Saturday 20 Dec 2014 (Local Time) from KDNL Reporting Station
Haze Haze  
Wind Chill: 47°   Ceiling: 6500
Heat Index: 49°   Visibility: 4mi
Dew Point: 48°   Wind: 6mph
Humidity: 97%   Direction: 120°ESE
Pressure: 30.2"   Gusts: NA
Location:  33.48°N, 81.97°W
Report Text: KDNL 201353Z AUTO 12005KT 4SM BR SCT050 BKN065 OVC110 09/09 A3020 RMK AO2 RAE40 SLP224 P0000 T00940089
Loading
Personal Weather Stations






























Interactive Weather Map New forecast layout! Learn more

10-Day Weather Forecast

Advertisements
Track Severe Weather on mobile